Time;durP1;ratioP1;P1;durP2;ratioP2;P2;SDS_P1;SDS_P2;PMS_P1;PMS_P2;Temp;Humidity;BMP_temperature;BMP_pressure;BME280_temperature;BME280_humidity;BME280_pressure;Samples;Min_cycle;Max_cycle;Signal;HPM_P1;HPM_P2
2022/12/08 05:18:39;;;;;;;61.40;27.00;;;;;;;-1.26;100.00;100219.06;5556512;32;322833;-88
2022/12/08 05:21:43;;;;;;;59.03;28.00;;;;;;;-1.28;100.00;100223.37;5551862;32;33806;-88
2022/12/08 05:24:46;;;;;;;60.05;27.77;;;;;;;-1.22;100.00;100223.37;5558065;32;34177;-88
2022/12/08 05:27:49;;;;;;;52.62;25.37;;;;;;;-1.15;100.00;100222.47;5554802;32;33564;-88
2022/12/08 05:30:52;;;;;;;55.58;26.37;;;;;;;-1.16;100.00;100227.69;5550668;32;34015;-87
2022/12/08 05:33:55;;;;;;;54.55;26.12;;;;;;;-1.22;100.00;100219.03;5546903;32;33990;-88
2022/12/08 05:37:04;;;;;;;49.60;23.90;;;;;;;-1.19;100.00;100225.09;5544115;32;34578;-88
2022/12/08 05:40:07;;;;;;;54.40;25.98;;;;;;;-1.18;100.00;100212.06;5544499;32;34561;-87
2022/12/08 05:43:10;;;;;;;52.22;26.05;;;;;;;-1.14;100.00;100213.81;5552377;32;34413;-91
2022/12/08 05:46:13;;;;;;;53.20;27.23;;;;;;;-1.11;100.00;100205.12;5557928;32;35127;-91
2022/12/08 05:49:16;;;;;;;65.22;31.73;;;;;;;-1.09;100.00;100193.78;5530750;32;33372;-92
2022/12/08 05:52:19;;;;;;;62.80;32.58;;;;;;;-1.06;100.00;100198.12;5544790;32;34615;-89
2022/12/08 05:55:21;;;;;;;57.15;30.92;;;;;;;-0.97;100.00;100192.87;5545653;32;33928;-88
2022/12/08 05:58:24;;;;;;;62.15;31.12;;;;;;;-0.88;100.00;100185.87;5544113;32;33200;-88
2022/12/08 06:01:30;;;;;;;51.60;28.50;;;;;;;-0.86;100.00;100205.00;5543994;32;34736;-88
2022/12/08 06:04:34;;;;;;;60.35;29.92;;;;;;;-0.78;100.00;100207.53;5547199;32;34227;-88
2022/12/08 06:07:36;;;;;;;60.03;29.80;;;;;;;-0.80;100.00;100212.78;5548683;32;33798;-88
2022/12/08 06:10:41;;;;;;;50.70;28.23;;;;;;;-0.82;100.00;100218.00;5555645;32;34199;-86
2022/12/08 06:13:44;;;;;;;55.05;28.67;;;;;;;-0.82;100.00;100206.69;5557283;32;34047;-87
2022/12/08 06:16:47;;;;;;;51.83;27.27;;;;;;;-0.66;100.00;100228.31;5548669;32;33945;-87
2022/12/08 06:19:49;;;;;;;51.50;29.48;;;;;;;-0.72;100.00;100218.81;5544354;32;33800;-87
2022/12/08 06:22:53;;;;;;;54.35;29.02;;;;;;;-0.69;100.00;100228.34;5543347;32;33744;-87
2022/12/08 06:26:03;;;;;;;62.22;28.38;;;;;;;-0.72;100.00;100233.56;5546313;32;33773;-88
2022/12/08 06:29:07;;;;;;;55.63;29.20;;;;;;;-0.72;100.00;100230.94;5536213;32;33876;-87
2022/12/08 06:32:10;;;;;;;54.90;28.87;;;;;;;-0.70;100.00;100234.44;5566516;32;33571;-87
2022/12/08 06:35:13;;;;;;;58.67;29.58;;;;;;;-0.64;100.00;100231.78;5523865;32;32532;-87
2022/12/08 06:38:16;;;;;;;58.38;29.80;;;;;;;-0.64;100.00;100228.31;5546583;32;34490;-87
2022/12/08 06:41:19;;;;;;;57.97;29.63;;;;;;;-0.71;100.00;100225.75;5541554;32;33988;-87
2022/12/08 06:44:21;;;;;;;56.58;30.60;;;;;;;-0.70;100.00;100234.44;5528475;32;33116;-87
2022/12/08 06:47:24;;;;;;;53.00;30.12;;;;;;;-0.63;100.00;100233.53;5514719;32;33288;-87
2022/12/08 06:50:28;;;;;;;57.05;30.10;;;;;;;-0.58;100.00;100225.66;5535900;32;34341;-87
2022/12/08 06:53:31;;;;;;;54.08;29.77;;;;;;;-0.59;100.00;100232.63;5536154;32;33935;-86
2022/12/08 06:56:34;;;;;;;61.90;31.27;;;;;;;-0.55;100.00;100230.87;5545857;32;34289;-86
2022/12/08 06:59:38;;;;;;;51.50;29.42;;;;;;;-0.52;100.00;100243.87;5548318;32;34155;-86
2022/12/08 07:02:41;;;;;;;55.60;29.92;;;;;;;-0.45;100.00;100236.87;5547435;32;34672;-87
2022/12/08 07:05:43;;;;;;;53.00;28.90;;;;;;;-0.34;100.00;100237.69;5536464;32;33798;-88
2022/12/08 07:08:46;;;;;;;64.75;28.05;;;;;;;-0.34;100.00;100234.19;5558969;32;33678;-88
2022/12/08 07:11:49;;;;;;;51.72;27.80;;;;;;;-0.37;100.00;100240.31;5547432;32;33899;-89
2022/12/08 07:14:51;;;;;;;52.10;27.27;;;;;;;-0.31;100.00;100240.25;5543928;32;34159;-88
2022/12/08 07:17:54;;;;;;;50.65;27.00;;;;;;;-0.19;100.00;100231.47;5526672;32;33089;-88
2022/12/08 07:21:07;;;;;;;54.90;26.92;;;;;;;-0.09;100.00;100229.69;5543950;32;33738;-90
2022/12/08 07:24:10;;;;;;;48.65;26.27;;;;;;;-0.08;100.00;100230.53;5554121;32;34300;-89
2022/12/08 07:27:12;;;;;;;46.05;25.00;;;;;;;0.01;100.00;100226.97;5536168;32;32843;-90
2022/12/08 07:30:16;;;;;;;48.50;25.95;;;;;;;0.08;100.00;100228.66;5549790;32;33959;-90
2022/12/08 07:33:18;;;;;;;42.05;23.92;;;;;;;0.33;100.00;100234.53;5545338;32;35076;-88
2022/12/08 07:36:22;;;;;;;45.95;23.15;;;;;;;0.08;100.00;100228.66;5538488;32;34201;-89
2022/12/08 07:39:25;;;;;;;44.53;24.10;;;;;;;0.09;100.00;100231.25;5548045;32;34454;-89
2022/12/08 07:42:28;;;;;;;43.40;24.42;;;;;;;0.15;100.00;100219.03;5528681;32;32559;-88
2022/12/08 07:45:31;;;;;;;42.17;24.20;;;;;;;0.08;100.00;100221.72;5551731;32;34190;-89
2022/12/08 07:48:34;;;;;;;45.50;24.65;;;;;;;0.08;100.00;100224.31;5565139;32;33671;-89
2022/12/08 07:51:36;;;;;;;44.72;25.30;;;;;;;0.16;100.00;100221.66;5551492;32;33159;-89
2022/12/08 07:54:39;;;;;;;45.97;25.35;;;;;;;0.16;100.00;100224.25;5532246;32;32741;-89
2022/12/08 08:01:29;;;;;;;52.55;28.77;;;;;;;0.43;100.00;100226.59;5527593;32;34265;-87
2022/12/08 08:04:34;;;;;;;58.20;30.10;;;;;;;0.58;100.00;100221.22;5534597;32;33866;-87
2022/12/08 08:07:38;;;;;;;56.35;31.87;;;;;;;0.70;100.00;100221.97;5542932;32;34739;-89
2022/12/08 08:10:41;;;;;;;57.03;31.98;;;;;;;0.77;100.00;100227.09;5527865;32;35205;-89
2022/12/08 08:13:44;;;;;;;55.40;31.33;;;;;;;0.90;100.00;100219.13;5521010;32;34432;-89
2022/12/08 08:16:47;;;;;;;47.53;28.48;;;;;;;1.13;100.00;100221.44;5511186;32;32520;-90
2022/12/08 08:19:49;;;;;;;53.70;30.85;;;;;;;1.45;100.00;100224.47;5531121;32;33635;-91
2022/12/08 08:22:52;;;;;;;51.58;29.27;;;;;;;1.81;100.00;100227.41;5541715;32;34253;-90
2022/12/08 08:25:59;;;;;;;53.00;29.48;;;;;;;1.79;100.00;100229.22;5547267;32;34428;-89
2022/12/08 08:29:02;;;;;;;51.70;28.40;;;;;;;1.70;100.00;100226.72;5543992;32;34249;-91
2022/12/08 08:32:04;;;;;;;48.87;28.70;;;;;;;1.64;100.00;100217.22;5547372;32;33961;-90
2022/12/08 08:35:07;;;;;;;54.58;30.12;;;;;;;1.89;100.00;100214.22;5530372;32;35870;-90
2022/12/08 08:38:10;;;;;;;56.50;30.33;;;;;;;2.11;100.00;100216.50;5531152;32;33864;-90
2022/12/08 08:41:13;;;;;;;56.80;30.95;;;;;;;1.67;100.00;100217.19;5530964;32;34503;-90
2022/12/08 08:44:15;;;;;;;60.78;32.00;;;;;;;1.91;100.00;100227.28;5537847;32;33799;-91
2022/12/08 08:47:18;;;;;;;65.00;35.60;;;;;;;1.85;100.00;100220.37;5537794;32;35399;-89
2022/12/08 08:50:21;;;;;;;59.78;35.88;;;;;;;2.00;100.00;100222.75;5515757;32;33018;-87
2022/12/08 08:53:24;;;;;;;61.55;34.75;;;;;;;2.05;100.00;100214.81;5529010;32;34496;-89
2022/12/08 08:56:26;;;;;;;65.18;33.58;;;;;;;2.20;100.00;100211.09;5527681;32;33671;-89
2022/12/08 08:59:29;;;;;;;55.22;32.33;;;;;;;2.45;100.00;100220.25;5521813;32;34394;-89
2022/12/08 09:02:32;;;;;;;51.47;30.58;;;;;;;2.40;100.00;100215.09;5535450;32;33671;-89
2022/12/08 09:05:38;;;;;;;57.47;29.48;;;;;;;2.20;100.00;100208.47;5515709;32;34125;-89
2022/12/08 09:08:42;;;;;;;57.05;30.05;;;;;;;2.42;100.00;100198.47;5529907;32;34519;-90
2022/12/08 09:11:44;;;;;;;49.90;29.35;;;;;;;2.65;100.00;100206.75;5529341;32;33690;-90
2022/12/08 09:14:47;;;;;;;51.92;29.20;;;;;;;2.78;100.00;100200.41;5529089;32;33770;-89
2022/12/08 09:17:50;;;;;;;52.67;30.48;;;;;;;2.73;100.00;100222.34;5528012;32;33869;-89
2022/12/08 09:20:52;;;;;;;58.08;32.33;;;;;;;2.56;100.00;100213.03;5528381;32;33988;-89
2022/12/08 09:23:58;;;;;;;69.22;33.58;;;;;;;2.33;100.00;100195.16;5528927;32;33904;-89
2022/12/08 09:27:00;;;;;;;59.58;33.30;;;;;;;2.15;100.00;100182.38;5529082;32;33959;-88
2022/12/08 09:30:03;;;;;;;61.05;33.13;;;;;;;2.19;100.00;100187.53;5528654;32;34318;-88
2022/12/08 09:33:07;;;;;;;56.90;33.42;;;;;;;2.25;100.00;100193.56;5531474;32;33886;-89
2022/12/08 09:36:10;;;;;;;56.85;32.08;;;;;;;2.51;100.00;100197.44;5532826;32;34416;-91
2022/12/08 09:39:12;;;;;;;54.95;30.95;;;;;;;2.67;100.00;100190.13;5529725;32;33850;-88
2022/12/08 09:42:32;;;;;;;54.75;30.15;;;;;;;2.69;100.00;100182.25;5514072;32;33882;-87
2022/12/08 09:45:35;;;;;;;54.83;31.70;;;;;;;2.71;100.00;100174.38;5533962;32;32547;-88
2022/12/08 09:48:44;;;;;;;54.22;30.98;;;;;;;2.58;100.00;100176.34;5546286;32;35063;-88
2022/12/08 09:51:47;;;;;;;50.70;29.67;;;;;;;2.45;100.00;100175.75;5531221;32;33501;-87
2022/12/08 09:54:50;;;;;;;47.78;29.35;;;;;;;2.58;100.00;100158.91;5528062;32;33694;-87
2022/12/08 09:58:01;;;;;;;53.13;31.48;;;;;;;2.60;100.00;100141.38;5524128;32;33904;-90
2022/12/08 10:01:03;;;;;;;55.30;31.58;;;;;;;2.51;100.00;100149.44;5509410;32;32739;-90
2022/12/08 10:04:24;;;;;;;51.90;30.90;;;;;;;2.42;100.00;100142.63;5525839;32;33905;-89
2022/12/08 10:07:42;;;;;;;51.10;29.77;;;;;;;2.55;100.00;100136.25;5524513;32;34527;-89
2022/12/08 10:11:02;;;;;;;51.60;29.85;;;;;;;2.87;100.00;100146.09;5510792;32;34505;-89
2022/12/08 10:14:30;;;;;;;47.38;27.77;;;;;;;3.07;100.00;100156.13;5553194;32;33844;-89
2022/12/08 10:17:39;;;;;;;58.05;29.70;;;;;;;3.09;100.00;100149.09;5545417;32;33010;-88
2022/12/08 10:20:44;;;;;;;51.95;29.25;;;;;;;3.09;100.00;100167.44;5524126;32;33672;-89
2022/12/08 10:23:50;;;;;;;51.47;28.05;;;;;;;3.20;100.00;100159.34;5518328;32;32710;-89
2022/12/08 10:26:54;;;;;;;51.97;28.42;;;;;;;3.04;100.00;100159.69;5529900;32;33777;-88
2022/12/08 10:29:57;;;;;;;46.70;27.40;;;;;;;2.70;100.00;100144.69;5514993;32;33400;-88
2022/12/08 10:33:00;;;;;;;43.13;25.77;;;;;;;2.68;100.00;100144.69;5522675;32;33839;-87
2022/12/08 10:36:03;;;;;;;49.17;27.67;;;;;;;2.67;100.00;100148.22;5527587;32;32595;-87
2022/12/08 10:39:42;;;;;;;49.22;26.67;;;;;;;2.36;100.00;100130.50;5519042;32;33902;-91
2022/12/08 10:42:49;;;;;;;46.33;25.90;;;;;;;2.65;100.00;100121.22;5510149;32;32929;-86
2022/12/08 10:45:52;;;;;;;46.80;26.27;;;;;;;2.82;100.00;100110.34;5526559;32;34584;-87
2022/12/08 10:49:04;;;;;;;45.97;25.08;;;;;;;3.12;100.00;100103.59;5506063;32;34032;-90
2022/12/08 10:52:23;;;;;;;46.37;26.17;;;;;;;3.45;100.00;100101.94;5520207;32;34681;-88
2022/12/08 10:55:26;;;;;;;44.63;25.77;;;;;;;3.52;100.00;100097.38;5546632;32;35128;-87
2022/12/08 10:58:39;;;;;;;46.13;25.27;;;;;;;3.71;100.00;100097.78;5536716;32;34859;-88
2022/12/08 11:01:54;;;;;;;45.40;25.92;;;;;;;3.78;100.00;100094.09;5533636;32;34168;-86
2022/12/08 11:05:00;;;;;;;37.88;21.05;;;;;;;4.06;100.00;100089.88;5513590;32;34659;-87
2022/12/08 11:08:04;;;;;;;44.38;25.17;;;;;;;5.12;100.00;100078.91;5533794;32;34307;-87
2022/12/08 11:11:07;;;;;;;45.05;25.50;;;;;;;4.39;100.00;100071.47;5541064;32;34136;-87
2022/12/08 11:14:16;;;;;;;45.38;26.37;;;;;;;4.21;100.00;100072.84;5546534;32;34069;-88
2022/12/08 11:17:21;;;;;;;48.55;27.60;;;;;;;4.27;100.00;100077.09;5554335;32;34477;-88
2022/12/08 11:20:24;;;;;;;44.97;25.90;;;;;;;4.12;100.00;100066.09;5517641;32;33511;-87
2022/12/08 11:23:28;;;;;;;40.50;24.50;;;;;;;4.03;100.00;100061.94;5542597;32;34722;-86
2022/12/08 11:26:34;;;;;;;41.90;23.83;;;;;;;3.97;100.00;100063.91;5532928;32;34262;-86
2022/12/08 11:29:37;;;;;;;40.67;23.08;;;;;;;3.88;100.00;100052.72;5533438;32;33762;-86
2022/12/08 11:32:53;;;;;;;41.03;22.45;;;;;;;3.68;100.00;100048.03;5527886;32;34319;-87
2022/12/08 11:36:03;;;;;;;37.47;21.95;;;;;;;3.79;100.00;100032.00;5523014;32;32573;-90
2022/12/08 11:39:11;;;;;;;34.55;20.02;;;;;;;3.89;100.00;100037.88;5532130;32;33862;-87
2022/12/08 11:42:18;;;;;;;32.63;20.10;;;;;;;3.85;100.00;100023.09;5533270;32;33983;-87
2022/12/08 11:45:26;;;;;;;33.97;19.50;;;;;;;3.75;100.00;100018.12;5536673;32;34324;-86
2022/12/08 11:48:36;;;;;;;30.27;17.40;;;;;;;3.64;100.00;99997.41;5525325;32;34086;-87
2022/12/08 11:51:41;;;;;;;27.83;16.98;;;;;;;3.81;100.00;99995.25;5528998;32;33876;-86
2022/12/08 11:55:01;;;;;;;24.85;14.93;;;;;;;4.07;100.00;99978.72;5521718;32;33237;-84
2022/12/08 11:58:26;;;;;;;30.03;17.43;;;;;;;3.88;100.00;99978.41;5528540;32;34760;-85
2022/12/08 12:01:28;;;;;;;27.67;16.55;;;;;;;3.62;100.00;99991.34;5522141;32;33914;-86
2022/12/08 12:04:39;;;;;;;27.13;15.57;;;;;;;3.48;100.00;99991.69;5522119;32;34062;-86
2022/12/08 12:07:48;;;;;;;24.08;14.90;;;;;;;3.49;100.00;99982.97;5521890;32;35889;-86
2022/12/08 12:12:11;;;;;;;25.98;14.75;;;;;;;3.46;100.00;99988.28;5529996;32;34832;-86
2022/12/08 12:14:56;;;;;;;24.52;14.73;;;;;;;3.41;100.00;99981.44;5527463;32;34052;-86
2022/12/08 12:18:30;;;;;;;24.55;14.90;;;;;;;3.59;100.00;99990.56;5533996;32;33862;-86
2022/12/08 12:21:37;;;;;;;23.60;13.30;;;;;;;3.50;100.00;99991.66;5528796;32;34200;-86
2022/12/08 12:24:45;;;;;;;24.48;13.50;;;;;;;3.47;100.00;99989.16;5545166;32;33855;-86
2022/12/08 12:27:49;;;;;;;22.35;13.77;;;;;;;3.51;100.00;99990.75;5532326;32;33496;-86
2022/12/08 12:31:02;;;;;;;29.83;15.60;;;;;;;3.43;100.00;100001.47;5528293;32;33141;-86
2022/12/08 12:34:16;;;;;;;33.42;19.58;;;;;;;3.52;100.00;99996.88;5532191;32;33490;-85
2022/12/08 12:37:23;;;;;;;40.25;23.70;;;;;;;3.43;100.00;99995.34;5539384;32;33794;-85
2022/12/08 12:40:27;;;;;;;37.92;22.00;;;;;;;3.40;100.00;99988.44;5555010;32;33752;-85
2022/12/08 12:43:36;;;;;;;47.60;26.60;;;;;;;3.44;100.00;99994.47;5538460;32;33242;-85
2022/12/08 12:46:47;;;;;;;46.20;25.52;;;;;;;3.45;100.00;99989.19;5536352;32;34869;-87
2022/12/08 12:49:51;;;;;;;49.08;26.40;;;;;;;3.41;100.00;99992.78;5523787;32;32760;-87
2022/12/08 12:52:54;;;;;;;46.45;25.73;;;;;;;3.19;100.00;99984.59;5512741;32;34158;-87
2022/12/08 12:55:59;;;;;;;46.55;26.55;;;;;;;3.22;100.00;99995.03;5528732;32;32623;-85
2022/12/08 12:59:21;;;;;;;46.80;28.33;;;;;;;3.21;100.00;99981.03;5529171;32;33848;-87
2022/12/08 13:02:32;;;;;;;47.47;27.33;;;;;;;2.96;100.00;99967.69;5518180;32;33807;-86
2022/12/08 13:05:46;;;;;;;;;;;;;;;2.96;100.00;99968.56;5515575;32;33238;-88
2022/12/08 13:08:55;;;;;;;48.13;26.35;;;;;;;2.88;100.00;99967.03;5530528;32;34591;-86
2022/12/08 13:12:06;;;;;;;46.78;25.95;;;;;;;2.88;100.00;99967.03;5510048;32;34125;-87
2022/12/08 13:15:17;;;;;;;;;;;;;;;2.85;100.00;99970.56;5534359;32;33980;-88
2022/12/08 13:18:25;;;;;;;42.90;23.42;;;;;;;2.77;100.00;99965.50;5539246;32;34723;-87
2022/12/08 13:21:37;;;;;;;42.22;24.42;;;;;;;2.87;100.00;99963.53;5528020;32;34154;-85
2022/12/08 13:24:39;;;;;;;43.50;23.80;;;;;;;2.85;100.00;99965.34;5520620;32;33877;-86
2022/12/08 13:27:51;;;;;;;46.85;24.58;;;;;;;2.76;100.00;99958.56;5510224;32;33670;-85
2022/12/08 13:31:01;;;;;;;41.78;22.50;;;;;;;2.77;100.00;99957.66;5525355;32;34316;-85
2022/12/08 13:34:10;;;;;;;36.42;19.45;;;;;;;2.79;100.00;99953.25;5529651;32;34090;-86
2022/12/08 13:37:31;;;;;;;35.08;18.95;;;;;;;2.73;100.00;99958.66;5510132;32;33867;-87
2022/12/08 13:40:36;;;;;;;30.23;17.50;;;;;;;2.83;100.00;99965.38;5547296;32;34127;-85
2022/12/08 13:44:00;;;;;;;28.33;15.80;;;;;;;2.83;100.00;99962.75;5539504;32;35337;-84
2022/12/08 13:47:36;;;;;;;28.73;14.40;;;;;;;2.81;100.00;99967.19;5517255;32;33608;-88
2022/12/08 13:51:16;;;;;;;24.77;14.52;;;;;;;2.96;100.00;99970.31;5531877;32;34164;-84
2022/12/08 13:54:40;;;;;;;26.90;15.07;;;;;;;2.86;100.00;99969.69;5530062;32;32466;-85
2022/12/08 13:58:02;;;;;;;26.17;14.00;;;;;;;2.80;100.00;99962.84;5535487;32;34258;-87
2022/12/08 14:01:22;;;;;;;25.05;13.65;;;;;;;2.78;100.00;99961.16;5539660;32;33853;-86
2022/12/08 14:04:26;;;;;;;25.92;14.55;;;;;;;2.81;100.00;99951.47;5511518;32;32779;-86
2022/12/08 14:07:51;;;;;;;24.00;14.55;;;;;;;2.93;100.00;99958.13;5531086;32;35214;-86
2022/12/08 14:11:03;;;;;;;34.63;18.83;;;;;;;2.97;100.00;99962.41;5517748;32;32648;-86
2022/12/08 14:14:16;;;;;;;;;;;;;;;2.86;100.00;99950.50;5536665;32;34325;-86
2022/12/08 14:17:40;;;;;;;40.47;20.92;;;;;;;2.78;100.00;99955.91;5536681;32;34570;-86
2022/12/08 14:20:43;;;;;;;40.38;22.10;;;;;;;2.74;100.00;99949.00;5532573;32;33872;-86
2022/12/08 14:24:05;;;;;;;38.45;21.12;;;;;;;2.65;100.00;99950.97;5516396;32;32711;-87
2022/12/08 14:27:14;;;;;;;36.30;21.17;;;;;;;2.56;100.00;99951.16;5530301;32;34312;-87
2022/12/08 14:30:25;;;;;;;38.15;20.35;;;;;;;2.60;100.00;99962.44;5517414;32;33032;-87
2022/12/08 14:33:27;;;;;;;39.43;21.43;;;;;;;2.56;100.00;99961.66;5533952;32;34279;-87
2022/12/08 14:36:32;;;;;;;40.15;22.25;;;;;;;2.48;100.00;99964.47;5531652;32;34165;-87
2022/12/08 14:39:35;;;;;;;37.83;21.45;;;;;;;2.69;100.00;99951.75;5514647;32;32222;-87
2022/12/08 14:42:45;;;;;;;39.83;21.92;;;;;;;2.54;100.00;99958.22;5529718;32;33922;-86
2022/12/08 14:45:52;;;;;;;36.78;20.88;;;;;;;2.40;100.00;99959.41;5525772;32;33836;-86
2022/12/08 14:48:56;;;;;;;35.90;19.95;;;;;;;2.39;100.00;99970.75;5528987;32;34110;-86
2022/12/08 14:52:00;;;;;;;35.13;20.10;;;;;;;2.42;100.00;99964.59;5530531;32;34020;-86
2022/12/08 14:55:06;;;;;;;37.55;20.33;;;;;;;2.41;100.00;99965.47;5530387;32;33910;-85
2022/12/08 14:58:26;;;;;;;35.33;20.17;;;;;;;2.31;100.00;99958.75;5525213;32;35149;-86
2022/12/08 15:01:29;;;;;;;33.95;19.35;;;;;;;2.27;100.00;99963.19;5529222;32;33838;-86
2022/12/08 15:04:32;;;;;;;35.10;19.40;;;;;;;2.30;100.00;99960.47;5529579;32;33982;-86
2022/12/08 15:07:48;;;;;;;33.70;20.02;;;;;;;2.25;100.00;99950.13;5528397;32;33360;-86
2022/12/08 15:11:19;;;;;;;35.75;20.62;;;;;;;2.24;100.00;99945.78;5532288;32;34240;-85
2022/12/08 15:14:29;;;;;;;35.08;20.25;;;;;;;2.23;100.00;99945.81;5532891;32;34494;-87
2022/12/08 15:17:47;;;;;;;34.45;19.92;;;;;;;2.20;100.00;99945.91;5534891;32;33770;-87
2022/12/08 15:20:55;;;;;;;35.72;19.55;;;;;;;2.18;100.00;99947.66;5516558;32;32978;-87
2022/12/08 15:23:57;;;;;;;32.78;19.65;;;;;;;2.19;100.00;99942.41;5517647;32;32597;-86
2022/12/08 15:27:02;;;;;;;35.53;19.50;;;;;;;2.19;100.00;99949.38;5532221;32;33891;-87
2022/12/08 15:30:11;;;;;;;32.13;18.40;;;;;;;2.12;100.00;99946.06;5530401;32;33713;-86
2022/12/08 15:33:18;;;;;;;34.03;18.87;;;;;;;2.15;100.00;99943.34;5530773;32;34749;-87
2022/12/08 15:36:20;;;;;;;32.58;18.98;;;;;;;2.10;100.00;99946.09;5530895;32;34426;-86
2022/12/08 15:39:33;;;;;;;35.20;19.45;;;;;;;2.06;100.00;99944.41;5533469;32;34048;-86
2022/12/08 15:42:35;;;;;;;33.25;18.30;;;;;;;2.07;100.00;99932.22;5533444;32;34275;-86
2022/12/08 15:45:38;;;;;;;32.55;18.98;;;;;;;2.05;100.00;99924.37;5532744;32;34360;-86
2022/12/08 15:48:56;;;;;;;30.95;19.00;;;;;;;2.20;100.00;99923.19;5532839;32;34062;-86
2022/12/08 15:52:00;;;;;;;34.70;19.00;;;;;;;2.32;100.00;99929.91;5534755;32;34617;-85
2022/12/08 15:55:19;;;;;;;33.40;17.50;;;;;;;2.26;100.00;99917.81;5521061;32;32976;-85
2022/12/08 15:58:24;;;;;;;31.33;17.55;;;;;;;2.15;100.00;99910.22;5533812;32;33923;-85
2022/12/08 16:01:47;;;;;;;32.13;16.83;;;;;;;2.24;100.00;99916.13;5531778;32;34049;-85
2022/12/08 16:04:50;;;;;;;33.03;18.10;;;;;;;2.32;100.00;99914.22;5538631;32;33921;-85
2022/12/08 16:08:15;;;;;;;30.33;17.08;;;;;;;2.28;100.00;99913.41;5530604;32;34743;-86
2022/12/08 16:15:10;;;;;;;33.07;18.40;;;;;;;2.22;100.00;99916.16;5517581;32;32772;-85
2022/12/08 16:18:36;;;;;;;36.55;20.30;;;;;;;2.32;100.00;99918.56;5530999;32;35141;-85
2022/12/08 16:21:40;;;;;;;32.50;19.12;;;;;;;2.15;100.00;99925.03;5531934;32;34757;-85
2022/12/08 16:25:04;;;;;;;33.33;18.58;;;;;;;2.10;100.00;99919.91;5533985;32;34314;-85
2022/12/08 16:28:23;;;;;;;35.17;19.45;;;;;;;2.13;100.00;99926.84;5531446;32;35164;-86
2022/12/08 16:31:46;;;;;;;37.50;19.27;;;;;;;2.23;100.00;99924.87;5520756;32;32329;-86
2022/12/08 16:34:50;;;;;;;34.22;19.77;;;;;;;2.37;100.00;99919.34;5531951;32;35015;-90
2022/12/08 16:37:53;;;;;;;35.80;20.00;;;;;;;2.25;100.00;99930.94;5533291;32;33622;-90
2022/12/08 16:44:17;;;;;;;;;;;;;;;2.15;100.00;99927.66;5531816;32;33890;-87
